Time;durP1;ratioP1;P1;durP2;ratioP2;P2;SDS_P1;SDS_P2;PMS_P1;PMS_P2;Temp;Humidity;BMP_temperature;BMP_pressure;BME280_temperature;BME280_humidity;BME280_pressure;Samples;Min_cycle;Max_cycle;Signal;HPM_P1;HPM_P2
2023/09/21 00:01:48;;;;;;;5.68;4.40;;;23.40;99.90;;;;;;6227427;28;88795;-69
2023/09/21 00:04:51;;;;;;;5.03;4.38;;;23.40;99.90;;;;;;6214203;28;89644;-69
2023/09/21 00:07:57;;;;;;;6.25;4.53;;;23.40;99.90;;;;;;6219635;28;88769;-69
2023/09/21 00:11:00;;;;;;;4.90;4.18;;;23.40;99.90;;;;;;6229748;28;87675;-69
2023/09/21 00:14:02;;;;;;;6.10;4.20;;;23.40;99.90;;;;;;6216417;28;89121;-69
2023/09/21 00:17:04;;;;;;;6.95;5.18;;;23.50;99.90;;;;;;6221654;28;88978;-69
2023/09/21 00:20:17;;;;;;;4.88;4.38;;;23.40;99.90;;;;;;6231999;28;88345;-70
2023/09/21 00:23:20;;;;;;;4.68;4.20;;;23.40;99.90;;;;;;6233253;28;89448;-69
2023/09/21 00:26:27;;;;;;;4.32;3.83;;;23.40;99.90;;;;;;6231070;28;88919;-69
2023/09/21 00:29:30;;;;;;;4.40;4.00;;;23.40;99.90;;;;;;6230461;28;90335;-68
2023/09/21 00:32:32;;;;;;;4.95;4.10;;;23.40;99.90;;;;;;6231617;28;89040;-69
2023/09/21 00:35:39;;;;;;;4.72;4.25;;;23.40;99.90;;;;;;6229290;28;88966;-69
2023/09/21 00:38:41;;;;;;;4.88;4.22;;;23.40;99.90;;;;;;6223120;28;89217;-69
2023/09/21 00:41:45;;;;;;;5.53;3.78;;;23.40;99.90;;;;;;6226373;28;89278;-69
2023/09/21 00:44:47;;;;;;;4.43;4.03;;;23.40;99.90;;;;;;6230192;28;89002;-68
2023/09/21 00:47:51;;;;;;;4.05;3.65;;;23.40;99.90;;;;;;6231270;28;87959;-69
2023/09/21 00:50:54;;;;;;;7.05;4.60;;;23.40;99.90;;;;;;6229692;28;88292;-69
2023/09/21 00:53:57;;;;;;;6.35;4.07;;;23.40;99.90;;;;;;6230952;28;89227;-68
2023/09/21 00:57:01;;;;;;;5.07;4.57;;;23.40;99.90;;;;;;6232748;28;89084;-69
2023/09/21 01:00:10;;;;;;;4.72;4.20;;;23.40;99.90;;;;;;6230160;28;91488;-68
2023/09/21 01:03:13;;;;;;;4.22;3.83;;;23.40;99.90;;;;;;6229953;28;89367;-69
2023/09/21 01:06:18;;;;;;;4.80;4.30;;;23.40;99.90;;;;;;6229855;28;89497;-68
2023/09/21 01:09:20;;;;;;;4.55;4.15;;;23.40;99.90;;;;;;6218449;28;88987;-68
2023/09/21 01:12:25;;;;;;;4.40;3.90;;;23.40;99.90;;;;;;6225677;28;88958;-69
2023/09/21 01:15:27;;;;;;;4.88;4.40;;;23.40;99.90;;;;;;6228724;28;89374;-69
2023/09/21 01:18:29;;;;;;;6.57;4.95;;;23.40;99.90;;;;;;6227925;28;89115;-68
2023/09/21 01:21:35;;;;;;;4.78;4.22;;;23.40;99.90;;;;;;6230957;28;88303;-69
2023/09/21 01:24:40;;;;;;;4.63;4.20;;;23.40;99.90;;;;;;6221650;28;87969;-68
2023/09/21 01:27:42;;;;;;;5.35;4.82;;;23.40;99.90;;;;;;6224006;28;89256;-68
2023/09/21 01:30:44;;;;;;;4.70;4.30;;;23.40;99.90;;;;;;6229237;28;89952;-68
2023/09/21 01:33:46;;;;;;;4.88;4.38;;;23.40;99.90;;;;;;6229604;28;89152;-68
2023/09/21 01:36:48;;;;;;;5.28;4.35;;;23.30;99.90;;;;;;6229753;28;89299;-68
2023/09/21 01:39:52;;;;;;;6.78;4.40;;;23.30;99.90;;;;;;6229703;28;89023;-69
2023/09/21 01:42:54;;;;;;;6.18;4.85;;;23.40;99.90;;;;;;6228407;28;88988;-69
2023/09/21 01:45:56;;;;;;;5.45;4.95;;;23.30;99.90;;;;;;6221515;28;89432;-69
2023/09/21 01:48:58;;;;;;;5.03;4.32;;;23.30;99.90;;;;;;6227528;28;88995;-68
2023/09/21 01:52:00;;;;;;;5.38;4.50;;;23.40;99.90;;;;;;6221631;28;88347;-68
2023/09/21 01:55:06;;;;;;;6.10;4.55;;;23.30;99.90;;;;;;6229043;28;88896;-68
2023/09/21 01:58:09;;;;;;;5.95;4.70;;;23.30;99.90;;;;;;6224698;28;89107;-69
2023/09/21 02:01:15;;;;;;;6.03;4.85;;;23.40;99.90;;;;;;6223477;28;89928;-69
2023/09/21 02:04:17;;;;;;;5.40;4.90;;;23.30;99.90;;;;;;6230399;28;89371;-68
2023/09/21 02:07:19;;;;;;;6.75;5.22;;;23.30;99.90;;;;;;6220464;28;89001;-69
2023/09/21 02:10:23;;;;;;;6.28;5.10;;;23.30;99.90;;;;;;6229458;28;89214;-69
2023/09/21 02:13:25;;;;;;;5.22;4.72;;;23.30;99.90;;;;;;6226519;28;89402;-69
2023/09/21 02:16:27;;;;;;;4.72;4.28;;;23.30;99.90;;;;;;6225713;28;90305;-69
2023/09/21 02:19:34;;;;;;;4.60;4.20;;;23.30;99.90;;;;;;6232698;28;89070;-69
2023/09/21 02:22:37;;;;;;;5.22;4.55;;;23.40;99.90;;;;;;6232959;28;88841;-69
2023/09/21 02:25:41;;;;;;;5.63;4.60;;;23.30;99.90;;;;;;6233625;28;88991;-69
2023/09/21 02:28:43;;;;;;;5.10;4.60;;;23.40;99.90;;;;;;6232990;28;89131;-69
2023/09/21 02:31:45;;;;;;;5.10;4.50;;;23.30;99.90;;;;;;6223395;28;89951;-69
2023/09/21 02:34:48;;;;;;;5.50;5.00;;;23.30;99.90;;;;;;6233333;28;88998;-69
2023/09/21 02:37:51;;;;;;;5.68;4.70;;;23.30;99.90;;;;;;6231926;28;89234;-69
2023/09/21 02:40:54;;;;;;;6.70;5.30;;;23.30;99.90;;;;;;6230128;28;89199;-69
2023/09/21 02:43:57;;;;;;;7.15;4.75;;;23.30;99.90;;;;;;6225162;28;89020;-69
2023/09/21 02:46:59;;;;;;;5.07;4.53;;;23.30;99.90;;;;;;6227484;28;89038;-69
2023/09/21 02:50:09;;;;;;;6.28;4.88;;;23.30;99.90;;;;;;6232904;28;89166;-69
2023/09/21 02:53:12;;;;;;;7.13;5.00;;;23.30;99.90;;;;;;6230968;28;88546;-68
2023/09/21 02:56:19;;;;;;;7.03;5.15;;;23.30;99.90;;;;;;6229188;28;89067;-69
2023/09/21 02:59:22;;;;;;;6.47;4.97;;;23.30;99.90;;;;;;6230582;28;87911;-69
2023/09/21 03:02:24;;;;;;;6.65;5.47;;;23.30;99.90;;;;;;6225334;28;90140;-69
2023/09/21 03:05:27;;;;;;;5.22;4.72;;;23.30;99.90;;;;;;6224580;28;89015;-69
2023/09/21 03:08:29;;;;;;;6.22;4.88;;;23.30;99.90;;;;;;6223366;28;89326;-69
2023/09/21 03:11:32;;;;;;;5.25;4.50;;;23.30;99.90;;;;;;6231549;28;89023;-69
2023/09/21 03:14:35;;;;;;;7.10;4.63;;;23.30;99.90;;;;;;6226700;28;88369;-69
2023/09/21 03:17:38;;;;;;;4.90;4.40;;;23.30;99.90;;;;;;6232190;28;88647;-68
2023/09/21 03:20:40;;;;;;;5.40;4.53;;;23.30;99.90;;;;;;6232185;28;88911;-69
2023/09/21 03:23:45;;;;;;;5.43;4.90;;;23.30;99.90;;;;;;6225285;28;88306;-69
2023/09/21 03:26:50;;;;;;;4.90;4.20;;;23.30;99.90;;;;;;6225368;28;89050;-68
2023/09/21 03:29:53;;;;;;;5.85;4.80;;;23.30;99.90;;;;;;6228728;28;89047;-68
2023/09/21 03:32:55;;;;;;;5.63;5.10;;;23.30;99.90;;;;;;6231433;28;89469;-69
2023/09/21 03:35:58;;;;;;;7.20;4.88;;;23.30;99.90;;;;;;6232465;28;89061;-69
2023/09/21 03:39:00;;;;;;;6.07;4.68;;;23.30;99.90;;;;;;6230175;28;89022;-68
2023/09/21 03:42:04;;;;;;;5.32;4.82;;;23.30;99.90;;;;;;6227527;28;87940;-69
2023/09/21 03:45:08;;;;;;;5.10;4.60;;;23.30;99.90;;;;;;6220224;28;89365;-68
2023/09/21 03:48:11;;;;;;;5.55;4.88;;;23.30;99.90;;;;;;6231743;28;89852;-68
2023/09/21 03:51:13;;;;;;;5.45;4.63;;;23.30;99.90;;;;;;6231792;28;89487;-68
2023/09/21 03:54:16;;;;;;;5.55;4.75;;;23.30;99.90;;;;;;6232980;28;87180;-68
2023/09/21 03:57:19;;;;;;;5.45;4.70;;;23.30;99.90;;;;;;6231432;28;90226;-68
2023/09/21 04:00:29;;;;;;;6.30;5.07;;;23.30;99.90;;;;;;6232770;28;89347;-68
2023/09/21 04:03:31;;;;;;;5.45;4.68;;;23.30;99.90;;;;;;6228572;28;90052;-68
2023/09/21 04:06:33;;;;;;;5.35;4.78;;;23.20;99.90;;;;;;6226077;28;89014;-69
2023/09/21 04:09:35;;;;;;;6.10;4.45;;;23.20;99.90;;;;;;6229608;28;88986;-69
2023/09/21 04:12:39;;;;;;;4.82;4.22;;;23.30;99.90;;;;;;6223603;28;89101;-69
2023/09/21 04:15:41;;;;;;;4.32;3.92;;;23.20;99.90;;;;;;6226442;28;89103;-68
2023/09/21 04:18:43;;;;;;;5.50;4.82;;;23.20;99.90;;;;;;6230745;28;89312;-69
2023/09/21 04:21:46;;;;;;;4.30;3.90;;;23.30;99.90;;;;;;6231784;28;89215;-69
2023/09/21 04:24:48;;;;;;;6.20;4.90;;;23.30;99.90;;;;;;6220932;28;87637;-68
2023/09/21 04:27:53;;;;;;;5.28;4.57;;;23.30;99.90;;;;;;6229656;28;88882;-72
2023/09/21 04:30:55;;;;;;;6.55;5.00;;;23.20;99.90;;;;;;6221699;28;88363;-69
2023/09/21 04:33:57;;;;;;;4.63;4.15;;;23.20;99.90;;;;;;6231067;28;89360;-69
2023/09/21 04:36:59;;;;;;;5.15;4.25;;;23.20;99.90;;;;;;6229481;28;89164;-69
2023/09/21 04:40:04;;;;;;;5.47;4.55;;;23.20;99.90;;;;;;6217093;28;89071;-69
2023/09/21 04:43:07;;;;;;;6.30;4.45;;;23.20;99.90;;;;;;6227946;28;89018;-69
2023/09/21 04:46:12;;;;;;;5.85;4.68;;;23.20;99.90;;;;;;6226468;28;89142;-69
2023/09/21 04:49:14;;;;;;;6.65;4.60;;;23.20;99.90;;;;;;6231324;28;89105;-69
2023/09/21 04:52:16;;;;;;;4.75;4.25;;;23.20;99.90;;;;;;6230971;28;89266;-69
2023/09/21 04:55:19;;;;;;;4.88;4.40;;;23.20;99.90;;;;;;6221326;28;88345;-71
2023/09/21 04:58:23;;;;;;;7.28;4.60;;;23.20;99.90;;;;;;6226365;28;89120;-71
2023/09/21 05:01:25;;;;;;;5.18;4.47;;;23.20;99.90;;;;;;6222157;28;89075;-68
2023/09/21 05:04:28;;;;;;;5.40;4.72;;;23.30;99.90;;;;;;6228987;28;90040;-68
2023/09/21 05:07:30;;;;;;;6.50;5.25;;;23.30;99.90;;;;;;6229892;28;89127;-69
2023/09/21 05:10:32;;;;;;;6.20;5.60;;;23.40;99.90;;;;;;6229283;28;89492;-70
2023/09/21 05:13:36;;;;;;;7.38;5.78;;;23.50;99.90;;;;;;6229574;28;89073;-69
2023/09/21 05:16:38;;;;;;;6.78;6.15;;;23.50;99.90;;;;;;6213353;28;89113;-69
2023/09/21 05:19:41;;;;;;;6.05;5.53;;;23.50;99.90;;;;;;6230303;28;90364;-69
2023/09/21 05:22:43;;;;;;;7.00;6.18;;;23.60;99.90;;;;;;6224963;28;89308;-70
2023/09/21 05:25:45;;;;;;;7.35;6.30;;;23.60;99.90;;;;;;6218731;28;88463;-70
2023/09/21 05:28:49;;;;;;;17.42;9.25;;;23.50;99.90;;;;;;6229466;28;89303;-70
2023/09/21 05:31:51;;;;;;;33.75;20.02;;;23.60;99.90;;;;;;6228533;28;89049;-70
2023/09/21 05:34:53;;;;;;;51.85;31.65;;;23.50;99.90;;;;;;6228228;28;90295;-71
2023/09/21 05:37:55;;;;;;;61.65;34.25;;;23.50;99.90;;;;;;6228400;28;88969;-70
2023/09/21 05:40:57;;;;;;;57.25;34.25;;;23.50;99.90;;;;;;6228908;28;89202;-70
2023/09/21 05:44:01;;;;;;;50.45;30.92;;;23.50;99.90;;;;;;6220660;28;87968;-70
2023/09/21 05:47:03;;;;;;;47.90;28.73;;;23.40;99.90;;;;;;6228942;28;89460;-70
2023/09/21 05:50:06;;;;;;;44.55;27.50;;;23.40;99.90;;;;;;6221503;28;89107;-71
2023/09/21 05:53:08;;;;;;;43.53;25.38;;;23.40;99.90;;;;;;6231176;28;89441;-70
2023/09/21 05:56:11;;;;;;;40.35;24.65;;;23.40;99.90;;;;;;6233064;28;87199;-70
2023/09/21 05:59:14;;;;;;;39.50;24.38;;;23.40;99.90;;;;;;6230086;28;88990;-70
2023/09/21 06:02:16;;;;;;;35.40;22.70;;;23.30;99.90;;;;;;6233277;28;89377;-69
2023/09/21 06:05:19;;;;;;;31.88;20.08;;;23.40;99.90;;;;;;6233122;28;90232;-71
2023/09/21 06:08:21;;;;;;;31.75;19.90;;;23.40;99.90;;;;;;6233827;28;89226;-70
2023/09/21 06:11:24;;;;;;;30.88;19.45;;;23.40;99.90;;;;;;6231553;28;89009;-71
2023/09/21 06:14:28;;;;;;;31.17;18.58;;;23.40;99.90;;;;;;6223994;28;89317;-70
2023/09/21 06:17:30;;;;;;;26.45;17.45;;;23.30;99.90;;;;;;6224891;28;89078;-70
2023/09/21 06:20:32;;;;;;;28.42;17.08;;;23.30;99.90;;;;;;6232077;28;88833;-71
2023/09/21 06:23:36;;;;;;;27.77;16.80;;;23.30;99.90;;;;;;6229361;28;89264;-71
2023/09/21 06:26:38;;;;;;;23.73;16.20;;;23.30;99.90;;;;;;6224632;28;88445;-71
2023/09/21 06:29:43;;;;;;;23.40;14.77;;;23.30;99.90;;;;;;6231692;28;89461;-70
2023/09/21 06:32:46;;;;;;;22.65;14.55;;;23.30;99.90;;;;;;6231819;28;89107;-70
2023/09/21 06:35:48;;;;;;;22.20;14.52;;;23.30;99.90;;;;;;6231584;28;90130;-70
2023/09/21 06:38:50;;;;;;;20.60;13.77;;;23.30;99.90;;;;;;6229426;28;87960;-70
2023/09/21 06:41:52;;;;;;;19.83;12.73;;;23.30;99.90;;;;;;6226354;28;89007;-70
2023/09/21 06:44:55;;;;;;;18.08;12.45;;;23.30;99.90;;;;;;6230189;28;87957;-70
2023/09/21 06:47:57;;;;;;;17.10;11.68;;;23.30;99.90;;;;;;6231246;28;89039;-70
2023/09/21 06:50:59;;;;;;;19.13;12.65;;;23.30;99.90;;;;;;6217940;28;89313;-71
2023/09/21 06:54:01;;;;;;;23.60;13.20;;;23.30;99.90;;;;;;6229373;28;89027;-70
2023/09/21 06:57:04;;;;;;;19.60;12.57;;;23.30;99.90;;;;;;6221450;28;88206;-70
2023/09/21 07:00:09;;;;;;;16.73;11.55;;;23.30;99.90;;;;;;6230423;28;89107;-70
2023/09/21 07:03:12;;;;;;;16.80;10.82;;;23.30;99.90;;;;;;6231778;28;90310;-70
2023/09/21 07:06:14;;;;;;;17.60;11.18;;;23.30;99.90;;;;;;6231257;28;90061;-71
2023/09/21 07:09:16;;;;;;;15.68;10.57;;;23.30;99.90;;;;;;6231134;28;89039;-70
2023/09/21 07:12:18;;;;;;;14.18;9.82;;;23.30;99.90;;;;;;6226981;28;89535;-70
2023/09/21 07:15:23;;;;;;;15.00;10.63;;;23.30;99.90;;;;;;6226474;28;88738;-70
2023/09/21 07:18:25;;;;;;;14.30;9.25;;;23.30;99.90;;;;;;6232218;28;89352;-71
2023/09/21 07:21:27;;;;;;;14.57;9.15;;;23.30;99.90;;;;;;6231122;28;89156;-71
2023/09/21 07:24:29;;;;;;;16.63;10.15;;;23.30;99.90;;;;;;6221143;28;89654;-70
2023/09/21 07:27:32;;;;;;;12.40;8.98;;;23.30;99.90;;;;;;6231048;28;88543;-71
2023/09/21 07:30:36;;;;;;;12.13;8.60;;;23.30;99.90;;;;;;6232100;28;89373;-70
2023/09/21 07:33:38;;;;;;;11.55;7.82;;;23.30;99.90;;;;;;6232364;28;89122;-71
2023/09/21 07:36:41;;;;;;;11.40;7.53;;;23.30;99.90;;;;;;6231896;28;89999;-71
2023/09/21 07:39:44;;;;;;;9.95;7.60;;;23.30;99.90;;;;;;6231653;28;89047;-70
2023/09/21 07:42:48;;;;;;;10.30;7.43;;;23.30;99.90;;;;;;6232570;28;89305;-71
2023/09/21 07:45:53;;;;;;;9.85;7.32;;;23.30;99.90;;;;;;6231956;28;89259;-70
2023/09/21 07:48:55;;;;;;;10.10;6.68;;;23.30;99.90;;;;;;6225938;28;88927;-71
2023/09/21 07:51:57;;;;;;;9.27;6.25;;;23.30;99.90;;;;;;6223391;28;89153;-70
2023/09/21 07:55:02;;;;;;;9.70;6.32;;;23.30;99.90;;;;;;6231645;28;89434;-71
2023/09/21 07:58:04;;;;;;;9.88;6.30;;;23.30;99.90;;;;;;6232299;28;87207;-71
2023/09/21 08:01:08;;;;;;;7.85;5.75;;;23.30;99.90;;;;;;6232143;28;87929;-71
2023/09/21 08:04:10;;;;;;;7.22;5.53;;;23.30;99.90;;;;;;6230357;28;89159;-71
2023/09/21 08:07:11;;;;;;;7.68;5.35;;;23.30;99.90;;;;;;6231195;28;88787;-71
2023/09/21 08:10:13;;;;;;;9.43;5.80;;;23.30;99.90;;;;;;6230821;28;88957;-70
2023/09/21 08:13:16;;;;;;;6.95;4.93;;;23.30;99.90;;;;;;6226992;28;89160;-71
2023/09/21 08:16:19;;;;;;;5.97;4.50;;;23.30;99.90;;;;;;6229981;28;89126;-70
2023/09/21 08:19:22;;;;;;;6.15;4.55;;;23.30;99.90;;;;;;6226069;28;87982;-71
2023/09/21 08:22:26;;;;;;;7.20;4.78;;;23.30;99.90;;;;;;6223543;28;89384;-71
2023/09/21 08:25:28;;;;;;;5.20;4.15;;;23.30;99.90;;;;;;6226408;28;88804;-71
2023/09/21 08:28:30;;;;;;;6.57;4.15;;;23.30;99.90;;;;;;6231276;28;88284;-70
2023/09/21 08:31:33;;;;;;;6.70;4.22;;;23.30;99.90;;;;;;6228933;28;89079;-70
2023/09/21 08:34:35;;;;;;;5.30;3.80;;;23.30;99.90;;;;;;6230940;28;89053;-71
2023/09/21 08:37:37;;;;;;;7.10;4.20;;;23.40;99.90;;;;;;6228976;28;89961;-70
2023/09/21 08:40:39;;;;;;;5.45;4.15;;;23.30;99.90;;;;;;6230684;28;89047;-70
2023/09/21 08:43:42;;;;;;;5.38;3.90;;;23.30;99.90;;;;;;6230837;28;89006;-71
2023/09/21 08:46:46;;;;;;;5.03;3.80;;;23.30;99.90;;;;;;6230472;28;88980;-70
2023/09/21 08:49:48;;;;;;;4.75;3.80;;;23.30;99.90;;;;;;6231385;28;89373;-71
2023/09/21 08:52:54;;;;;;;5.03;4.10;;;23.30;99.90;;;;;;6227670;28;89090;-71
2023/09/21 08:55:58;;;;;;;5.00;4.00;;;23.30;99.90;;;;;;6230087;28;87912;-71
2023/09/21 08:59:02;;;;;;;4.93;3.90;;;23.40;99.90;;;;;;6229993;28;87341;-70
2023/09/21 09:02:05;;;;;;;5.93;3.95;;;23.30;99.90;;;;;;6229835;28;89979;-70
2023/09/21 09:05:09;;;;;;;5.07;3.80;;;23.30;99.90;;;;;;6231090;28;88883;-71
2023/09/21 09:08:12;;;;;;;5.30;3.70;;;23.30;99.90;;;;;;6230151;28;90041;-70
2023/09/21 09:11:35;;;;;;;5.50;3.35;;;23.30;99.90;;;;;;6228200;28;89079;-70
2023/09/21 09:14:43;;;;;;;6.15;3.75;;;23.30;99.90;;;;;;6229118;28;88487;-71
2023/09/21 09:17:46;;;;;;;5.93;3.63;;;23.40;99.90;;;;;;6230002;28;88983;-70
2023/09/21 09:20:48;;;;;;;5.38;3.50;;;23.40;99.90;;;;;;6230342;28;89196;-71
2023/09/21 09:23:50;;;;;;;4.88;3.78;;;23.40;99.90;;;;;;6229267;28;87854;-71
2023/09/21 09:26:53;;;;;;;4.85;3.83;;;23.30;99.90;;;;;;6223421;28;90502;-71
2023/09/21 09:29:57;;;;;;;5.85;3.60;;;23.40;99.90;;;;;;6230018;28;88309;-70
2023/09/21 09:33:02;;;;;;;4.57;3.70;;;23.30;99.90;;;;;;6229909;28;89271;-71
2023/09/21 09:36:05;;;;;;;5.47;4.13;;;23.40;99.90;;;;;;6229239;28;89059;-71
2023/09/21 09:39:08;;;;;;;7.85;4.45;;;23.40;99.90;;;;;;6228610;28;88806;-71
2023/09/21 09:42:11;;;;;;;4.75;3.90;;;23.40;99.90;;;;;;6230538;28;88713;-71
2023/09/21 09:45:18;;;;;;;5.18;3.78;;;23.40;99.90;;;;;;6230142;28;89100;-71
2023/09/21 09:48:23;;;;;;;4.78;3.55;;;23.40;99.90;;;;;;6225787;28;89256;-71
2023/09/21 09:51:37;;;;;;;5.90;4.20;;;23.40;99.90;;;;;;6216453;28;89296;-71
2023/09/21 09:54:39;;;;;;;6.82;4.13;;;23.40;99.90;;;;;;6229053;28;90245;-71
2023/09/21 09:57:45;;;;;;;4.40;3.80;;;23.40;99.90;;;;;;6229790;28;88236;-71
2023/09/21 10:00:47;;;;;;;5.13;3.65;;;23.40;99.90;;;;;;6219822;28;88284;-71
2023/09/21 10:03:53;;;;;;;4.40;3.75;;;23.40;99.90;;;;;;6229148;28;89067;-71
2023/09/21 10:06:58;;;;;;;5.55;3.88;;;23.40;99.90;;;;;;6227260;28;88356;-68
2023/09/21 10:10:03;;;;;;;6.15;3.67;;;23.40;99.90;;;;;;6229143;28;90078;-70
2023/09/21 10:13:06;;;;;;;6.93;3.45;;;23.50;99.90;;;;;;6222364;28;89042;-72
2023/09/21 10:16:13;;;;;;;7.05;3.60;;;23.50;99.90;;;;;;6225330;28;89074;-69
2023/09/21 10:19:18;;;;;;;7.15;3.50;;;23.60;99.90;;;;;;6229381;28;89450;-68
2023/09/21 10:22:25;;;;;;;7.45;4.43;;;23.70;99.90;;;;;;6219667;28;89168;-66
2023/09/21 10:25:38;;;;;;;6.25;4.60;;;23.80;99.90;;;;;;6225829;28;89098;-68
2023/09/21 10:28:40;;;;;;;5.50;4.82;;;24.00;99.90;;;;;;6229004;28;88954;-70
2023/09/21 10:31:44;;;;;;;118.70;77.82;;;24.20;99.90;;;;;;6228054;28;88892;-68
2023/09/21 10:34:48;;;;;;;163.15;120.82;;;24.40;99.90;;;;;;6226633;28;89665;-68
2023/09/21 10:38:12;;;;;;;65.47;53.55;;;24.60;99.90;;;;;;6224480;28;89133;-70
2023/09/21 10:41:30;;;;;;;35.03;27.92;;;24.80;99.90;;;;;;6227394;28;88812;-69
2023/09/21 10:45:07;;;;;;;23.30;17.40;;;24.80;99.90;;;;;;6226698;28;89027;-69
2023/09/21 10:48:09;;;;;;;17.60;15.05;;;24.80;99.90;;;;;;6179680;28;89152;-69
2023/09/21 10:51:14;;;;;;;18.48;14.75;;;24.80;99.90;;;;;;6179545;28;88803;-69
2023/09/21 10:54:18;;;;;;;15.27;12.65;;;24.70;99.90;;;;;;6178633;28;89019;-69
2023/09/21 10:57:24;;;;;;;15.57;11.38;;;24.70;99.90;;;;;;6177377;28;88965;-69
2023/09/21 11:00:27;;;;;;;13.50;10.15;;;24.60;99.90;;;;;;6179829;28;89069;-69
2023/09/21 11:03:29;;;;;;;12.93;10.02;;;24.50;99.90;;;;;;6171865;28;88845;-69
2023/09/21 11:06:33;;;;;;;11.23;9.00;;;24.50;99.90;;;;;;6180266;28;89605;-69
2023/09/21 11:09:37;;;;;;;11.15;9.02;;;24.50;99.90;;;;;;6178914;28;89395;-69
2023/09/21 11:12:40;;;;;;;10.90;8.10;;;24.40;99.90;;;;;;6177603;28;90118;-69
2023/09/21 11:15:42;;;;;;;10.70;7.68;;;24.40;99.90;;;;;;6175678;28;89012;-69
2023/09/21 11:18:44;;;;;;;8.98;7.50;;;24.40;99.90;;;;;;6204424;28;89035;-69
2023/09/21 11:21:49;;;;;;;11.43;7.50;;;24.30;99.90;;;;;;6232023;28;89071;-70
2023/09/21 11:24:51;;;;;;;11.68;7.78;;;24.30;99.90;;;;;;6223015;28;87937;-69
2023/09/21 11:27:53;;;;;;;14.32;8.38;;;24.30;99.90;;;;;;6231464;28;88980;-70
2023/09/21 11:30:57;;;;;;;12.38;7.72;;;24.30;99.90;;;;;;6229084;28;89004;-69
2023/09/21 11:34:05;;;;;;;14.25;8.75;;;24.20;99.90;;;;;;6235917;28;87253;-69
2023/09/21 11:37:10;;;;;;;21.75;9.68;;;24.20;99.90;;;;;;6230771;28;89007;-69
2023/09/21 11:40:13;;;;;;;17.67;9.30;;;24.20;99.90;;;;;;6231648;28;89142;-69
2023/09/21 11:43:16;;;;;;;15.02;8.20;;;24.10;99.90;;;;;;6228680;28;90005;-69
2023/09/21 11:46:19;;;;;;;16.70;8.13;;;24.10;99.90;;;;;;6231423;28;89073;-70
2023/09/21 11:49:21;;;;;;;15.52;7.78;;;24.20;99.90;;;;;;6228355;28;90081;-70
2023/09/21 11:52:24;;;;;;;12.90;7.30;;;24.10;99.90;;;;;;6227260;28;89076;-69
2023/09/21 11:55:27;;;;;;;11.27;6.50;;;24.10;99.90;;;;;;6232253;28;88938;-69
2023/09/21 11:58:31;;;;;;;11.77;7.10;;;24.10;99.90;;;;;;6223571;28;89988;-69
2023/09/21 12:01:35;;;;;;;14.10;6.68;;;24.10;99.90;;;;;;6231494;28;89043;-69
2023/09/21 12:04:38;;;;;;;10.95;6.50;;;24.10;99.90;;;;;;6230977;28;88465;-69
2023/09/21 12:07:42;;;;;;;10.60;6.57;;;24.10;99.90;;;;;;6231471;28;89491;-69
2023/09/21 12:10:45;;;;;;;12.77;5.80;;;24.10;99.90;;;;;;6232205;28;89134;-69
2023/09/21 12:13:47;;;;;;;11.00;6.25;;;24.10;99.90;;;;;;6219646;28;90135;-69
2023/09/21 12:16:51;;;;;;;11.45;5.72;;;24.10;99.90;;;;;;6222147;28;89077;-69
2023/09/21 12:19:53;;;;;;;7.82;5.60;;;24.10;99.90;;;;;;6232795;28;89198;-69
2023/09/21 12:22:57;;;;;;;7.25;5.55;;;24.10;99.90;;;;;;6232097;28;89578;-69
2023/09/21 12:25:59;;;;;;;7.60;5.18;;;24.10;99.90;;;;;;6220859;28;88032;-69
2023/09/21 12:29:01;;;;;;;7.22;5.20;;;24.10;99.90;;;;;;6231973;28;89238;-69
2023/09/21 12:32:04;;;;;;;9.43;5.43;;;24.00;99.90;;;;;;6230705;28;87972;-69
2023/09/21 12:35:08;;;;;;;9.65;5.95;;;24.00;99.90;;;;;;6227764;28;88320;-69
2023/09/21 12:38:12;;;;;;;7.72;5.35;;;24.00;99.90;;;;;;6221576;28;90441;-69
2023/09/21 12:41:14;;;;;;;7.97;5.13;;;24.00;99.90;;;;;;6224507;28;89027;-69
2023/09/21 12:44:15;;;;;;;8.20;5.05;;;24.00;99.90;;;;;;6230556;28;89744;-70
2023/09/21 12:47:17;;;;;;;7.30;5.10;;;24.00;99.90;;;;;;6231140;28;89084;-69
2023/09/21 12:50:20;;;;;;;6.28;4.57;;;24.00;99.90;;;;;;6227407;28;89375;-70
2023/09/21 12:53:23;;;;;;;6.47;4.95;;;24.00;99.90;;;;;;6225424;28;89047;-69
2023/09/21 12:56:26;;;;;;;7.53;5.00;;;24.00;99.90;;;;;;6225473;28;89086;-70
2023/09/21 12:59:28;;;;;;;7.70;4.88;;;24.00;99.90;;;;;;6220671;28;89074;-69
2023/09/21 13:02:30;;;;;;;6.55;4.97;;;24.00;99.90;;;;;;6229118;28;89075;-69
2023/09/21 13:05:32;;;;;;;6.82;4.90;;;24.00;99.90;;;;;;6231399;28;87142;-69
2023/09/21 13:08:36;;;;;;;6.55;4.60;;;24.00;99.90;;;;;;6231001;28;89138;-69
2023/09/21 13:11:38;;;;;;;5.22;4.28;;;24.00;99.90;;;;;;6227408;28;88810;-69
2023/09/21 13:14:41;;;;;;;6.97;4.57;;;24.00;99.90;;;;;;6226560;28;89953;-69
2023/09/21 13:17:43;;;;;;;6.90;4.50;;;24.00;99.90;;;;;;6230250;28;87934;-69
2023/09/21 13:20:45;;;;;;;5.38;4.25;;;23.90;99.90;;;;;;6230327;28;89067;-70
2023/09/21 13:23:53;;;;;;;4.88;4.00;;;24.00;99.90;;;;;;6230305;28;89390;-69
2023/09/21 13:26:55;;;;;;;5.25;4.18;;;23.90;99.90;;;;;;6227417;28;89851;-69
2023/09/21 13:29:57;;;;;;;8.00;4.70;;;23.90;99.90;;;;;;6228033;28;89047;-69
2023/09/21 13:32:59;;;;;;;7.47;4.28;;;23.90;99.90;;;;;;6220054;28;89655;-69
2023/09/21 13:36:01;;;;;;;5.38;4.30;;;23.90;99.90;;;;;;6230790;28;87189;-69
2023/09/21 13:39:05;;;;;;;4.95;3.92;;;23.90;99.90;;;;;;6219792;28;89075;-69
2023/09/21 13:42:07;;;;;;;5.70;4.10;;;23.90;99.90;;;;;;6210832;28;89001;-70
2023/09/21 13:45:12;;;;;;;6.35;3.90;;;23.90;99.90;;;;;;6227351;28;89132;-69
2023/09/21 13:48:15;;;;;;;5.47;4.07;;;23.90;99.90;;;;;;6227265;28;89058;-69
2023/09/21 13:51:17;;;;;;;6.03;4.15;;;23.90;99.90;;;;;;6228409;28;89344;-69
2023/09/21 13:54:22;;;;;;;5.82;4.20;;;23.90;99.90;;;;;;6219260;28;89114;-69
2023/09/21 13:57:29;;;;;;;5.55;3.92;;;23.90;99.90;;;;;;6231035;28;89058;-70
2023/09/21 14:00:33;;;;;;;6.53;4.10;;;23.90;99.90;;;;;;6217847;28;89372;-69
2023/09/21 14:03:36;;;;;;;4.97;3.72;;;23.90;99.90;;;;;;6229571;28;88359;-70
2023/09/21 14:06:38;;;;;;;5.47;4.18;;;23.90;99.90;;;;;;6227382;28;87228;-70
2023/09/21 14:09:42;;;;;;;5.70;3.80;;;23.90;99.90;;;;;;6229086;28;89406;-70
2023/09/21 14:12:44;;;;;;;4.43;3.85;;;23.90;99.90;;;;;;6222479;28;89005;-70
2023/09/21 14:15:46;;;;;;;4.28;3.85;;;23.90;99.90;;;;;;6226541;28;90042;-70
2023/09/21 14:18:48;;;;;;;5.78;3.95;;;23.90;99.90;;;;;;6234398;28;89341;-70
2023/09/21 14:21:51;;;;;;;5.60;3.88;;;23.90;99.90;;;;;;6234268;28;89521;-70
2023/09/21 14:24:55;;;;;;;4.25;3.40;;;23.90;99.90;;;;;;6223266;28;89435;-69
2023/09/21 14:27:57;;;;;;;6.93;4.28;;;23.90;99.90;;;;;;6232280;28;90265;-70
2023/09/21 14:30:59;;;;;;;5.47;3.70;;;23.90;99.90;;;;;;6233735;28;89064;-70
2023/09/21 14:34:01;;;;;;;4.82;3.65;;;23.90;99.90;;;;;;6235108;28;88070;-70
2023/09/21 14:37:05;;;;;;;4.30;3.60;;;23.90;99.90;;;;;;6234286;28;88332;-70
2023/09/21 14:40:09;;;;;;;6.07;3.63;;;23.90;99.90;;;;;;6233428;28;89141;-70
2023/09/21 14:43:11;;;;;;;4.90;3.85;;;23.90;99.90;;;;;;6232646;28;89178;-70
2023/09/21 14:46:13;;;;;;;4.90;3.78;;;23.90;99.90;;;;;;6225354;28;89956;-70
2023/09/21 14:49:15;;;;;;;5.10;3.63;;;23.90;99.90;;;;;;6226975;28;89088;-70
2023/09/21 14:52:18;;;;;;;4.03;3.63;;;23.90;99.90;;;;;;6233329;28;89050;-70
2023/09/21 14:55:21;;;;;;;5.38;3.58;;;23.90;99.90;;;;;;6233204;28;89265;-70
2023/09/21 14:58:23;;;;;;;4.35;3.70;;;23.80;99.90;;;;;;6232825;28;89030;-70
2023/09/21 15:01:26;;;;;;;4.78;3.67;;;23.90;99.90;;;;;;6231870;28;89854;-70
2023/09/21 15:04:28;;;;;;;4.63;3.63;;;23.90;99.90;;;;;;6229501;28;88989;-70
2023/09/21 15:07:30;;;;;;;5.07;3.70;;;23.90;99.90;;;;;;6219992;28;88808;-70
2023/09/21 15:10:33;;;;;;;4.85;3.80;;;23.80;99.90;;;;;;6232888;28;89142;-71
2023/09/21 15:13:35;;;;;;;7.45;4.40;;;23.80;99.90;;;;;;6224182;28;90036;-70
2023/09/21 15:16:37;;;;;;;4.50;3.78;;;23.80;99.90;;;;;;6232148;28;88795;-70
2023/09/21 15:19:41;;;;;;;4.07;3.50;;;23.90;99.90;;;;;;6232472;28;89029;-70
2023/09/21 15:22:43;;;;;;;4.75;3.50;;;23.90;99.90;;;;;;6231533;28;89257;-70
2023/09/21 15:25:48;;;;;;;4.25;3.65;;;23.80;99.90;;;;;;6221026;28;89211;-69
2023/09/21 15:28:51;;;;;;;4.22;3.80;;;23.90;99.90;;;;;;6232225;28;88373;-70
2023/09/21 15:31:54;;;;;;;5.30;3.55;;;23.90;99.90;;;;;;6232562;28;87957;-69
2023/09/21 15:34:57;;;;;;;4.00;3.60;;;23.80;99.90;;;;;;6231380;28;88064;-70
2023/09/21 15:38:00;;;;;;;5.32;3.70;;;23.80;99.90;;;;;;6233107;28;88657;-69
2023/09/21 15:41:06;;;;;;;4.50;3.60;;;23.90;99.90;;;;;;6231779;28;88075;-69
2023/09/21 15:44:09;;;;;;;5.22;3.90;;;23.90;99.90;;;;;;6231763;28;88772;-69
2023/09/21 15:47:12;;;;;;;5.47;3.80;;;23.90;99.90;;;;;;6231883;28;89407;-69
2023/09/21 15:50:15;;;;;;;4.00;3.60;;;23.90;99.90;;;;;;6232514;28;87915;-70